sensor_id;sensor_type;location;lat;lon;timestamp;pressure;altitude;pressure_sealevel;temperature;humidity
33286;BME280;19656;50.096;20.014;2023-04-24T00:00:48;98210.33;;;15.68;47.01
33286;BME280;19656;50.096;20.014;2023-04-24T00:06:01;98209.56;;;15.59;47.53
33286;BME280;19656;50.096;20.014;2023-04-24T00:11:05;98203.45;;;15.50;47.98
33286;BME280;19656;50.096;20.014;2023-04-24T00:16:08;98200.44;;;15.36;48.51
33286;BME280;19656;50.096;20.014;2023-04-24T00:21:12;98201.62;;;15.29;48.46
33286;BME280;19656;50.096;20.014;2023-04-24T00:26:15;98198.12;;;15.21;49.31
33286;BME280;19656;50.096;20.014;2023-04-24T00:31:18;98198.08;;;15.14;50.09
33286;BME280;19656;50.096;20.014;2023-04-24T00:36:22;98189.59;;;15.04;50.54
33286;BME280;19656;50.096;20.014;2023-04-24T00:41:25;98187.52;;;14.97;50.97
33286;BME280;19656;50.096;20.014;2023-04-24T00:46:28;98186.63;;;14.84;51.45
33286;BME280;19656;50.096;20.014;2023-04-24T00:51:32;98180.90;;;14.73;51.80
33286;BME280;19656;50.096;20.014;2023-04-24T00:56:37;98180.90;;;14.67;52.26
33286;BME280;19656;50.096;20.014;2023-04-24T01:01:40;98176.13;;;14.62;52.68
33286;BME280;19656;50.096;20.014;2023-04-24T01:06:45;98169.28;;;14.53;52.90
33286;BME280;19656;50.096;20.014;2023-04-24T01:11:49;98171.91;;;14.42;53.07
33286;BME280;19656;50.096;20.014;2023-04-24T01:16:52;98166.13;;;14.35;53.18
33286;BME280;19656;50.096;20.014;2023-04-24T01:21:58;98169.53;;;14.27;53.72
33286;BME280;19656;50.096;20.014;2023-04-24T01:27:02;98166.52;;;14.17;53.85
33286;BME280;19656;50.096;20.014;2023-04-24T01:32:05;98162.19;;;14.06;53.99
33286;BME280;19656;50.096;20.014;2023-04-24T01:37:08;98153.05;;;13.96;53.93
33286;BME280;19656;50.096;20.014;2023-04-24T01:42:12;98150.62;;;13.88;54.39
33286;BME280;19656;50.096;20.014;2023-04-24T01:47:16;98145.66;;;13.79;54.42
33286;BME280;19656;50.096;20.014;2023-04-24T01:52:19;98143.20;;;13.71;54.38
33286;BME280;19656;50.096;20.014;2023-04-24T01:57:23;98138.19;;;13.65;54.74
33286;BME280;19656;50.096;20.014;2023-04-24T02:02:28;98133.05;;;13.55;54.71
33286;BME280;19656;50.096;20.014;2023-04-24T02:07:33;98129.25;;;13.45;54.84
33286;BME280;19656;50.096;20.014;2023-04-24T02:12:36;98123.15;;;13.42;54.88
33286;BME280;19656;50.096;20.014;2023-04-24T02:17:39;98119.07;;;13.40;55.32
33286;BME280;19656;50.096;20.014;2023-04-24T02:22:43;98112.38;;;13.31;55.43
33286;BME280;19656;50.096;20.014;2023-04-24T02:27:46;98110.98;;;13.26;55.60
33286;BME280;19656;50.096;20.014;2023-04-24T02:32:49;98107.87;;;13.23;55.79
33286;BME280;19656;50.096;20.014;2023-04-24T02:37:53;98095.90;;;13.17;56.06
33286;BME280;19656;50.096;20.014;2023-04-24T02:42:57;98092.24;;;13.12;56.46
33286;BME280;19656;50.096;20.014;2023-04-24T02:48:02;98093.96;;;13.05;56.50
33286;BME280;19656;50.096;20.014;2023-04-24T02:53:06;98088.73;;;12.99;56.42
33286;BME280;19656;50.096;20.014;2023-04-24T02:58:09;98082.57;;;12.92;56.10
33286;BME280;19656;50.096;20.014;2023-04-24T03:03:16;98078.98;;;12.78;55.99
33286;BME280;19656;50.096;20.014;2023-04-24T03:08:19;98083.27;;;12.70;55.94
33286;BME280;19656;50.096;20.014;2023-04-24T03:13:23;98085.26;;;12.67;56.17
33286;BME280;19656;50.096;20.014;2023-04-24T03:18:27;98084.07;;;12.61;56.22
33286;BME280;19656;50.096;20.014;2023-04-24T03:25:28;98083.81;;;12.51;57.05
33286;BME280;19656;50.096;20.014;2023-04-24T03:30:31;98082.84;;;12.46;56.85
33286;BME280;19656;50.096;20.014;2023-04-24T03:35:35;98081.73;;;12.42;56.55
33286;BME280;19656;50.096;20.014;2023-04-24T03:40:43;98085.34;;;12.40;56.71
33286;BME280;19656;50.096;20.014;2023-04-24T03:46:08;98086.27;;;12.33;57.14
33286;BME280;19656;50.096;20.014;2023-04-24T03:51:16;98091.75;;;12.26;56.95
33286;BME280;19656;50.096;20.014;2023-04-24T03:56:22;98090.45;;;12.23;56.92
33286;BME280;19656;50.096;20.014;2023-04-24T04:01:25;98092.61;;;12.21;57.02
33286;BME280;19656;50.096;20.014;2023-04-24T04:06:38;98095.27;;;12.23;57.12
33286;BME280;19656;50.096;20.014;2023-04-24T04:11:42;98092.84;;;12.18;57.21
33286;BME280;19656;50.096;20.014;2023-04-24T04:16:45;98093.41;;;12.14;57.25
33286;BME280;19656;50.096;20.014;2023-04-24T04:21:49;98091.70;;;12.12;57.14
33286;BME280;19656;50.096;20.014;2023-04-24T04:27:02;98088.66;;;12.15;57.19
33286;BME280;19656;50.096;20.014;2023-04-24T04:32:12;98083.65;;;12.15;57.28
33286;BME280;19656;50.096;20.014;2023-04-24T04:37:15;98078.36;;;12.15;57.09
33286;BME280;19656;50.096;20.014;2023-04-24T04:42:28;98072.84;;;12.21;56.82
33286;BME280;19656;50.096;20.014;2023-04-24T04:47:32;98071.23;;;12.27;56.30
33286;BME280;19656;50.096;20.014;2023-04-24T04:52:36;98072.06;;;12.37;55.64
33286;BME280;19656;50.096;20.014;2023-04-24T04:58:00;98071.00;;;12.51;55.17
33286;BME280;19656;50.096;20.014;2023-04-24T05:03:04;98071.17;;;12.62;55.02
33286;BME280;19656;50.096;20.014;2023-04-24T05:08:25;98071.02;;;12.78;54.80
33286;BME280;19656;50.096;20.014;2023-04-24T05:13:30;98068.46;;;12.93;55.18
33286;BME280;19656;50.096;20.014;2023-04-24T05:18:48;98066.45;;;13.08;55.44
33286;BME280;19656;50.096;20.014;2023-04-24T05:23:53;98068.59;;;13.30;54.10
33286;BME280;19656;50.096;20.014;2023-04-24T05:29:18;98067.98;;;13.55;52.92
33286;BME280;19656;50.096;20.014;2023-04-24T05:34:22;98063.27;;;13.81;51.95
33286;BME280;19656;50.096;20.014;2023-04-24T05:39:29;98067.67;;;14.07;51.90
33286;BME280;19656;50.096;20.014;2023-04-24T05:44:34;98065.35;;;14.29;51.33
33286;BME280;19656;50.096;20.014;2023-04-24T05:49:37;98056.41;;;14.44;50.61
33286;BME280;19656;50.096;20.014;2023-04-24T05:54:41;98056.50;;;14.62;50.19
33286;BME280;19656;50.096;20.014;2023-04-24T05:59:44;98050.98;;;14.79;49.73
33286;BME280;19656;50.096;20.014;2023-04-24T06:04:49;98042.48;;;14.95;49.20
33286;BME280;19656;50.096;20.014;2023-04-24T06:09:53;98038.80;;;15.11;49.19
33286;BME280;19656;50.096;20.014;2023-04-24T06:14:57;98032.81;;;15.27;49.10
33286;BME280;19656;50.096;20.014;2023-04-24T06:20:25;98030.65;;;15.43;49.27
33286;BME280;19656;50.096;20.014;2023-04-24T06:25:28;98028.70;;;15.58;48.87
33286;BME280;19656;50.096;20.014;2023-04-24T06:30:31;98028.71;;;15.72;48.67
33286;BME280;19656;50.096;20.014;2023-04-24T06:35:36;98026.66;;;15.89;48.21
33286;BME280;19656;50.096;20.014;2023-04-24T06:40:39;98017.98;;;16.08;46.77
33286;BME280;19656;50.096;20.014;2023-04-24T06:45:43;98013.84;;;16.28;45.57
33286;BME280;19656;50.096;20.014;2023-04-24T06:50:47;98009.13;;;16.42;45.31
33286;BME280;19656;50.096;20.014;2023-04-24T06:55:53;98006.84;;;16.61;44.23
33286;BME280;19656;50.096;20.014;2023-04-24T07:00:56;98002.09;;;16.79;42.55
33286;BME280;19656;50.096;20.014;2023-04-24T07:05:59;97998.44;;;16.99;41.75
33286;BME280;19656;50.096;20.014;2023-04-24T07:11:02;97998.96;;;17.33;45.37
33286;BME280;19656;50.096;20.014;2023-04-24T07:16:05;97995.59;;;17.86;44.76
33286;BME280;19656;50.096;20.014;2023-04-24T07:21:09;97988.30;;;18.26;43.43
33286;BME280;19656;50.096;20.014;2023-04-24T07:26:12;97981.45;;;18.57;41.84
33286;BME280;19656;50.096;20.014;2023-04-24T07:31:17;97978.94;;;18.65;40.49
33286;BME280;19656;50.096;20.014;2023-04-24T07:36:20;97973.64;;;18.69;40.55
33286;BME280;19656;50.096;20.014;2023-04-24T07:41:23;97968.98;;;18.82;40.03
33286;BME280;19656;50.096;20.014;2023-04-24T07:46:27;97970.41;;;18.77;38.68
33286;BME280;19656;50.096;20.014;2023-04-24T07:51:32;97965.06;;;18.83;39.09
33286;BME280;19656;50.096;20.014;2023-04-24T07:56:41;97963.75;;;19.03;36.64
33286;BME280;19656;50.096;20.014;2023-04-24T08:01:45;97956.98;;;19.15;35.91
33286;BME280;19656;50.096;20.014;2023-04-24T08:06:48;97950.82;;;19.29;35.15
33286;BME280;19656;50.096;20.014;2023-04-24T08:11:51;97944.24;;;19.36;35.58
33286;BME280;19656;50.096;20.014;2023-04-24T08:16:56;97942.65;;;19.45;35.12
33286;BME280;19656;50.096;20.014;2023-04-24T08:21:59;97943.70;;;19.55;34.64
33286;BME280;19656;50.096;20.014;2023-04-24T08:27:02;97939.04;;;19.64;34.45
33286;BME280;19656;50.096;20.014;2023-04-24T08:32:05;97930.64;;;19.73;34.80
33286;BME280;19656;50.096;20.014;2023-04-24T08:37:09;97925.59;;;19.83;34.14
33286;BME280;19656;50.096;20.014;2023-04-24T08:42:13;97919.27;;;19.97;33.92
33286;BME280;19656;50.096;20.014;2023-04-24T08:47:17;97916.34;;;20.06;33.38
33286;BME280;19656;50.096;20.014;2023-04-24T08:52:22;97912.91;;;20.24;32.74
33286;BME280;19656;50.096;20.014;2023-04-24T08:57:25;97912.58;;;20.40;32.60
33286;BME280;19656;50.096;20.014;2023-04-24T09:02:29;97911.73;;;20.56;31.79
33286;BME280;19656;50.096;20.014;2023-04-24T09:07:45;97904.09;;;20.73;31.57
33286;BME280;19656;50.096;20.014;2023-04-24T09:12:50;97903.09;;;20.85;31.42
33286;BME280;19656;50.096;20.014;2023-04-24T09:17:53;97897.31;;;20.93;30.82
33286;BME280;19656;50.096;20.014;2023-04-24T09:22:57;97891.98;;;20.99;30.26
33286;BME280;19656;50.096;20.014;2023-04-24T09:28:03;97890.22;;;21.08;29.23
33286;BME280;19656;50.096;20.014;2023-04-24T09:33:13;97884.17;;;21.19;29.57
33286;BME280;19656;50.096;20.014;2023-04-24T09:38:16;97880.19;;;21.33;29.36
33286;BME280;19656;50.096;20.014;2023-04-24T09:43:19;97875.41;;;21.44;30.11
33286;BME280;19656;50.096;20.014;2023-04-24T09:48:36;97871.86;;;21.57;29.86
33286;BME280;19656;50.096;20.014;2023-04-24T09:53:44;97866.21;;;21.63;31.60
33286;BME280;19656;50.096;20.014;2023-04-24T09:58:48;97862.04;;;21.67;30.87
33286;BME280;19656;50.096;20.014;2023-04-24T10:03:51;97859.20;;;21.85;30.70
33286;BME280;19656;50.096;20.014;2023-04-24T10:08:54;97855.90;;;22.11;29.89
33286;BME280;19656;50.096;20.014;2023-04-24T10:13:59;97850.98;;;22.34;29.71
33286;BME280;19656;50.096;20.014;2023-04-24T10:19:02;97841.80;;;22.61;28.89
33286;BME280;19656;50.096;20.014;2023-04-24T10:24:06;97835.48;;;22.68;27.84
33286;BME280;19656;50.096;20.014;2023-04-24T10:29:12;97832.66;;;22.81;27.87
33286;BME280;19656;50.096;20.014;2023-04-24T10:34:24;97829.36;;;22.84;28.19
33286;BME280;19656;50.096;20.014;2023-04-24T10:39:27;97828.14;;;23.06;26.30
33286;BME280;19656;50.096;20.014;2023-04-24T10:44:36;97819.45;;;23.22;26.47
33286;BME280;19656;50.096;20.014;2023-04-24T10:49:39;97816.95;;;23.30;26.16
33286;BME280;19656;50.096;20.014;2023-04-24T10:54:46;97818.66;;;22.97;25.54
33286;BME280;19656;50.096;20.014;2023-04-24T11:05:16;97811.40;;;22.67;25.42
33286;BME280;19656;50.096;20.014;2023-04-24T11:10:27;97807.73;;;22.81;25.92
33286;BME280;19656;50.096;20.014;2023-04-24T11:15:30;97806.88;;;22.85;26.23
33286;BME280;19656;50.096;20.014;2023-04-24T11:20:33;97804.59;;;22.68;26.61
33286;BME280;19656;50.096;20.014;2023-04-24T11:25:37;97801.31;;;22.72;27.08
33286;BME280;19656;50.096;20.014;2023-04-24T11:30:40;97797.48;;;22.75;27.26
33286;BME280;19656;50.096;20.014;2023-04-24T11:35:43;97795.30;;;22.90;26.82
33286;BME280;19656;50.096;20.014;2023-04-24T11:40:47;97784.71;;;23.07;26.49
33286;BME280;19656;50.096;20.014;2023-04-24T11:45:52;97788.41;;;23.21;26.89
33286;BME280;19656;50.096;20.014;2023-04-24T11:50:55;97780.27;;;23.64;26.50
33286;BME280;19656;50.096;20.014;2023-04-24T11:56:03;97776.39;;;23.71;25.51
33286;BME280;19656;50.096;20.014;2023-04-24T12:01:06;97773.52;;;23.54;25.87
33286;BME280;19656;50.096;20.014;2023-04-24T12:06:11;97764.09;;;23.72;26.06
33286;BME280;19656;50.096;20.014;2023-04-24T12:11:15;97756.91;;;23.85;25.96
33286;BME280;19656;50.096;20.014;2023-04-24T12:16:19;97760.27;;;23.73;26.06
33286;BME280;19656;50.096;20.014;2023-04-24T12:21:22;97755.43;;;23.41;26.08
33286;BME280;19656;50.096;20.014;2023-04-24T12:26:27;97749.23;;;23.21;25.44
33286;BME280;19656;50.096;20.014;2023-04-24T12:31:32;97744.39;;;23.10;26.25
33286;BME280;19656;50.096;20.014;2023-04-24T12:36:35;97742.56;;;22.89;26.19
33286;BME280;19656;50.096;20.014;2023-04-24T12:41:50;97741.77;;;22.79;26.10
33286;BME280;19656;50.096;20.014;2023-04-24T12:46:53;97735.84;;;22.72;26.74
33286;BME280;19656;50.096;20.014;2023-04-24T12:51:56;97730.38;;;22.68;27.36
33286;BME280;19656;50.096;20.014;2023-04-24T12:56:59;97734.71;;;22.56;27.32
33286;BME280;19656;50.096;20.014;2023-04-24T13:02:03;97744.31;;;22.47;27.46
33286;BME280;19656;50.096;20.014;2023-04-24T13:07:06;97757.16;;;22.28;28.71
33286;BME280;19656;50.096;20.014;2023-04-24T13:12:10;97760.59;;;21.95;30.72
33286;BME280;19656;50.096;20.014;2023-04-24T13:17:14;97760.63;;;21.58;31.76
33286;BME280;19656;50.096;20.014;2023-04-24T13:25:34;97766.56;;;21.01;33.35
33286;BME280;19656;50.096;20.014;2023-04-24T13:30:38;97765.90;;;20.69;34.48
33286;BME280;19656;50.096;20.014;2023-04-24T13:35:41;97773.55;;;20.47;35.27
33286;BME280;19656;50.096;20.014;2023-04-24T13:40:44;97776.38;;;20.28;36.25
33286;BME280;19656;50.096;20.014;2023-04-24T13:45:47;97776.59;;;20.16;36.61
33286;BME280;19656;50.096;20.014;2023-04-24T13:50:50;97779.16;;;20.06;37.12
33286;BME280;19656;50.096;20.014;2023-04-24T13:55:54;97787.64;;;19.98;36.73
33286;BME280;19656;50.096;20.014;2023-04-24T14:00:57;97790.04;;;19.91;36.00
33286;BME280;19656;50.096;20.014;2023-04-24T14:06:00;97793.21;;;19.84;35.79
33286;BME280;19656;50.096;20.014;2023-04-24T14:11:04;97802.70;;;19.74;35.69
33286;BME280;19656;50.096;20.014;2023-04-24T14:16:07;97805.29;;;19.65;36.03
33286;BME280;19656;50.096;20.014;2023-04-24T14:21:11;97809.27;;;19.61;36.04
33286;BME280;19656;50.096;20.014;2023-04-24T14:26:14;97813.13;;;19.56;36.47
33286;BME280;19656;50.096;20.014;2023-04-24T14:31:18;97810.67;;;19.45;36.69
33286;BME280;19656;50.096;20.014;2023-04-24T14:36:22;97815.14;;;19.37;37.11
33286;BME280;19656;50.096;20.014;2023-04-24T14:41:25;97816.24;;;19.30;37.19
33286;BME280;19656;50.096;20.014;2023-04-24T14:46:29;97814.91;;;19.24;37.42
33286;BME280;19656;50.096;20.014;2023-04-24T14:51:33;97816.89;;;19.20;37.59
33286;BME280;19656;50.096;20.014;2023-04-24T14:56:36;97818.05;;;19.19;38.09
33286;BME280;19656;50.096;20.014;2023-04-24T15:01:39;97826.36;;;19.15;38.48
33286;BME280;19656;50.096;20.014;2023-04-24T15:06:42;97827.43;;;19.03;39.00
33286;BME280;19656;50.096;20.014;2023-04-24T15:11:46;97827.48;;;18.95;39.15
33286;BME280;19656;50.096;20.014;2023-04-24T15:16:49;97826.58;;;18.89;39.22
33286;BME280;19656;50.096;20.014;2023-04-24T15:21:53;97824.98;;;18.84;39.42
33286;BME280;19656;50.096;20.014;2023-04-24T15:26:58;97824.59;;;18.83;39.68
33286;BME280;19656;50.096;20.014;2023-04-24T15:32:03;97831.30;;;18.82;39.91
33286;BME280;19656;50.096;20.014;2023-04-24T15:37:06;97829.07;;;18.81;40.09
33286;BME280;19656;50.096;20.014;2023-04-24T15:42:09;97827.97;;;18.80;40.33
33286;BME280;19656;50.096;20.014;2023-04-24T15:47:12;97825.06;;;18.82;40.33
33286;BME280;19656;50.096;20.014;2023-04-24T15:52:16;97826.98;;;18.85;40.47
33286;BME280;19656;50.096;20.014;2023-04-24T15:57:20;97827.48;;;18.84;40.72
33286;BME280;19656;50.096;20.014;2023-04-24T16:02:23;97833.41;;;18.78;41.00
33286;BME280;19656;50.096;20.014;2023-04-24T16:07:26;97834.64;;;18.68;41.50
33286;BME280;19656;50.096;20.014;2023-04-24T16:12:29;97836.67;;;18.65;41.19
33286;BME280;19656;50.096;20.014;2023-04-24T16:17:32;97837.71;;;18.53;41.82
33286;BME280;19656;50.096;20.014;2023-04-24T16:22:38;97841.02;;;18.41;42.43
33286;BME280;19656;50.096;20.014;2023-04-24T16:27:42;97842.04;;;18.32;42.85
33286;BME280;19656;50.096;20.014;2023-04-24T16:32:47;97837.86;;;18.21;43.36
33286;BME280;19656;50.096;20.014;2023-04-24T16:37:50;97839.97;;;18.10;43.19
33286;BME280;19656;50.096;20.014;2023-04-24T16:42:54;97839.66;;;18.02;43.28
33286;BME280;19656;50.096;20.014;2023-04-24T16:47:57;97838.20;;;17.94;43.56
33286;BME280;19656;50.096;20.014;2023-04-24T17:25:24;97847.39;;;17.48;45.46
33286;BME280;19656;50.096;20.014;2023-04-24T17:30:27;97846.86;;;17.43;45.48
33286;BME280;19656;50.096;20.014;2023-04-24T17:35:31;97845.64;;;17.38;45.73
33286;BME280;19656;50.096;20.014;2023-04-24T17:40:36;97846.08;;;17.34;45.90
33286;BME280;19656;50.096;20.014;2023-04-24T17:45:41;97843.55;;;17.33;46.06
33286;BME280;19656;50.096;20.014;2023-04-24T17:50:44;97846.67;;;17.28;46.32
33286;BME280;19656;50.096;20.014;2023-04-24T17:55:48;97846.20;;;17.20;46.77
33286;BME280;19656;50.096;20.014;2023-04-24T18:00:51;97848.14;;;17.18;47.08
33286;BME280;19656;50.096;20.014;2023-04-24T18:05:54;97854.93;;;17.12;47.03
33286;BME280;19656;50.096;20.014;2023-04-24T18:10:57;97864.31;;;17.05;47.43
33286;BME280;19656;50.096;20.014;2023-04-24T20:25:36;97874.09;;;16.17;52.50
33286;BME280;19656;50.096;20.014;2023-04-24T20:30:39;97874.04;;;16.09;52.73
33286;BME280;19656;50.096;20.014;2023-04-24T20:35:43;97878.77;;;16.06;52.88
33286;BME280;19656;50.096;20.014;2023-04-24T20:40:46;97880.42;;;16.04;53.02
33286;BME280;19656;50.096;20.014;2023-04-24T20:45:54;97878.20;;;16.05;53.13
33286;BME280;19656;50.096;20.014;2023-04-24T20:50:57;97876.89;;;16.04;53.10
33286;BME280;19656;50.096;20.014;2023-04-24T20:56:02;97876.19;;;15.98;53.37
33286;BME280;19656;50.096;20.014;2023-04-24T21:01:05;97875.92;;;15.98;53.47
33286;BME280;19656;50.096;20.014;2023-04-24T21:06:09;97874.34;;;16.01;53.47
33286;BME280;19656;50.096;20.014;2023-04-24T21:11:13;97873.97;;;16.01;53.41
33286;BME280;19656;50.096;20.014;2023-04-24T21:16:16;97871.45;;;16.01;53.56
33286;BME280;19656;50.096;20.014;2023-04-24T21:21:20;97875.87;;;16.00;53.56
33286;BME280;19656;50.096;20.014;2023-04-24T21:26:25;97872.98;;;15.98;53.75
33286;BME280;19656;50.096;20.014;2023-04-24T21:31:28;97874.70;;;15.90;54.01
33286;BME280;19656;50.096;20.014;2023-04-24T21:36:34;97869.56;;;15.90;54.23
33286;BME280;19656;50.096;20.014;2023-04-24T21:41:38;97868.59;;;15.92;54.33
33286;BME280;19656;50.096;20.014;2023-04-24T21:46:41;97863.80;;;15.87;54.61
33286;BME280;19656;50.096;20.014;2023-04-24T21:51:46;97864.39;;;15.74;55.05
33286;BME280;19656;50.096;20.014;2023-04-24T21:56:49;97862.92;;;15.71;55.11
33286;BME280;19656;50.096;20.014;2023-04-24T22:01:53;97859.30;;;15.71;55.36
33286;BME280;19656;50.096;20.014;2023-04-24T22:06:56;97856.55;;;15.70;55.82
33286;BME280;19656;50.096;20.014;2023-04-24T22:12:00;97857.77;;;15.65;56.31
33286;BME280;19656;50.096;20.014;2023-04-24T22:17:03;97862.84;;;15.63;56.84
33286;BME280;19656;50.096;20.014;2023-04-24T22:22:07;97860.84;;;15.56;57.61
33286;BME280;19656;50.096;20.014;2023-04-24T22:27:10;97859.29;;;15.52;58.26
33286;BME280;19656;50.096;20.014;2023-04-24T22:32:13;97860.77;;;15.44;59.53
33286;BME280;19656;50.096;20.014;2023-04-24T22:37:16;97859.93;;;15.33;60.52
33286;BME280;19656;50.096;20.014;2023-04-24T22:42:20;97860.42;;;15.23;61.58
33286;BME280;19656;50.096;20.014;2023-04-24T22:47:23;97858.67;;;15.15;62.24
33286;BME280;19656;50.096;20.014;2023-04-24T22:52:26;97857.41;;;15.13;62.88
33286;BME280;19656;50.096;20.014;2023-04-24T22:57:30;97859.09;;;15.17;63.28
33286;BME280;19656;50.096;20.014;2023-04-24T23:02:34;97855.23;;;15.17;63.69
33286;BME280;19656;50.096;20.014;2023-04-24T23:07:37;97848.55;;;15.11;64.39
33286;BME280;19656;50.096;20.014;2023-04-24T23:12:42;97842.96;;;15.08;64.84
33286;BME280;19656;50.096;20.014;2023-04-24T23:17:45;97841.54;;;15.06;65.37
33286;BME280;19656;50.096;20.014;2023-04-24T23:22:49;97839.08;;;14.99;65.87
33286;BME280;19656;50.096;20.014;2023-04-24T23:27:53;97835.36;;;14.91;66.37
33286;BME280;19656;50.096;20.014;2023-04-24T23:32:56;97833.08;;;14.87;66.77
33286;BME280;19656;50.096;20.014;2023-04-24T23:37:59;97831.11;;;14.87;66.96
33286;BME280;19656;50.096;20.014;2023-04-24T23:43:03;97827.98;;;14.86;67.30
33286;BME280;19656;50.096;20.014;2023-04-24T23:48:10;97828.61;;;14.85;67.59
33286;BME280;19656;50.096;20.014;2023-04-24T23:53:13;97825.13;;;14.84;67.82
33286;BME280;19656;50.096;20.014;2023-04-24T23:58:16;97818.17;;;14.82;68.08
